createdAt,value
2022-09-01T00:00:04.049Z,0.45
2022-09-01T00:02:36.987Z,0.47
2022-09-01T00:05:08.649Z,0.40
2022-09-01T00:07:37.676Z,0.55
2022-09-01T00:10:09.384Z,0.50
2022-09-01T00:12:39.647Z,0.57
2022-09-01T00:15:11.747Z,0.40
2022-09-01T00:17:40.931Z,0.60
2022-09-01T00:20:14.139Z,0.40
2022-09-01T00:22:46.283Z,0.40
2022-09-01T00:25:15.294Z,0.60
2022-09-01T00:27:44.300Z,0.40
2022-09-01T00:30:14.041Z,0.60
2022-09-01T00:32:46.806Z,0.50
2022-09-01T00:35:19.806Z,0.60
2022-09-01T00:37:48.870Z,0.40
2022-09-01T00:40:19.710Z,0.50
2022-09-01T00:42:49.376Z,0.60
2022-09-01T00:45:19.452Z,0.40
2022-09-01T00:47:51.172Z,0.60
2022-09-01T00:50:22.334Z,0.50
2022-09-01T00:52:54.348Z,0.60
2022-09-01T00:55:28.201Z,0.47
2022-09-01T00:57:58.124Z,0.70
2022-09-01T01:00:29.867Z,0.40
2022-09-01T01:02:59.502Z,0.50
2022-09-01T01:05:34.254Z,0.40
2022-09-01T01:08:04.719Z,0.60
2022-09-01T01:10:37.908Z,0.45
2022-09-01T01:13:10.609Z,0.50
2022-09-01T01:15:43.935Z,0.60
2022-09-01T01:18:13.517Z,0.38
2022-09-01T01:21:01.934Z,0.40
2022-09-01T01:23:40.318Z,0.40
2022-09-01T01:26:11.619Z,0.43
2022-09-01T01:28:44.497Z,0.60
2022-09-01T01:31:16.656Z,0.68
2022-09-01T01:33:48.083Z,0.40
2022-09-01T01:36:21.711Z,0.70
2022-09-01T01:38:52.658Z,0.60
2022-09-01T01:41:24.351Z,0.55
2022-09-01T01:43:53.355Z,0.60
2022-09-01T01:46:23.870Z,0.60
2022-09-01T01:48:54.098Z,0.47
2022-09-01T01:51:28.562Z,0.65
2022-09-01T01:53:59.730Z,0.52
2022-09-01T01:56:30.278Z,0.60
2022-09-01T01:58:59.350Z,0.50
2022-09-01T02:01:32.267Z,0.45
2022-09-01T02:04:04.357Z,0.55
2022-09-01T02:06:35.624Z,0.63
2022-09-01T02:09:05.475Z,0.50
2022-09-01T02:11:38.029Z,0.60
2022-09-01T02:14:10.441Z,0.40
2022-09-01T02:16:39.748Z,0.60
2022-09-01T02:19:10.764Z,0.50
2022-09-01T02:21:45.132Z,0.30
2022-09-01T02:24:14.218Z,0.50
2022-09-01T02:26:47.538Z,0.45
2022-09-01T02:29:22.369Z,0.52
2022-09-01T02:31:53.172Z,0.60
2022-09-01T02:34:24.323Z,0.60
2022-09-01T02:36:56.930Z,0.40
2022-09-01T02:39:29.476Z,0.60
2022-09-01T02:42:01.429Z,0.47
2022-09-01T02:44:32.274Z,0.52
2022-09-01T02:47:05.629Z,0.50
2022-09-01T02:49:36.258Z,0.40
2022-09-01T02:52:06.326Z,0.40
2022-09-01T02:54:36.402Z,0.50
2022-09-01T02:57:09.213Z,0.50
2022-09-01T02:59:43.136Z,0.35
2022-09-01T03:02:12.865Z,0.50
2022-09-01T03:04:42.008Z,0.35
2022-09-01T03:07:13.872Z,0.50
2022-09-01T03:09:43.894Z,0.50
2022-09-01T03:12:14.620Z,0.45
2022-09-01T03:14:43.671Z,0.35
2022-09-01T03:17:14.181Z,0.50
2022-09-01T03:19:44.646Z,0.50
2022-09-01T03:22:14.270Z,0.38
2022-09-01T03:24:44.057Z,0.50
2022-09-01T03:27:14.466Z,0.30
2022-09-01T03:29:43.748Z,0.40
2022-09-01T03:32:12.850Z,0.40
2022-09-01T03:34:42.035Z,0.45
2022-09-01T03:37:12.337Z,0.47
2022-09-01T03:39:41.483Z,0.50
2022-09-01T03:42:12.733Z,0.50
2022-09-01T03:44:44.608Z,0.50
2022-09-01T03:47:17.120Z,0.45
2022-09-01T03:49:49.311Z,0.30
2022-09-01T03:52:18.589Z,0.55
2022-09-01T03:54:48.154Z,0.40
2022-09-01T03:57:17.201Z,0.65
2022-09-01T03:59:47.758Z,0.50
2022-09-01T04:02:17.295Z,0.50
2022-09-01T04:04:46.286Z,0.60
2022-09-01T04:07:19.079Z,0.50
2022-09-01T04:09:48.653Z,0.43
2022-09-01T04:12:17.605Z,0.50
2022-09-01T04:14:53.832Z,0.40
2022-09-01T04:17:40.250Z,0.45
2022-09-01T04:20:10.424Z,0.50
2022-09-01T04:22:39.426Z,0.30
2022-09-01T04:25:11.452Z,0.50
2022-09-01T04:27:40.717Z,0.60
2022-09-01T04:30:13.805Z,0.55
2022-09-01T04:32:48.374Z,0.35
2022-09-01T04:35:18.762Z,0.80
2022-09-01T04:37:50.207Z,0.47
2022-09-01T04:40:19.276Z,0.65
2022-09-01T04:42:48.761Z,0.40
2022-09-01T04:45:22.482Z,0.57
2022-09-01T04:47:51.964Z,1.30
2022-09-01T04:50:22.270Z,0.63
2022-09-01T04:53:12.208Z,0.52
2022-09-01T04:55:49.794Z,1.15
2022-09-01T04:58:22.227Z,0.50
2022-09-01T05:00:57.109Z,0.50
2022-09-01T05:03:26.476Z,1.38
2022-09-01T05:06:06.714Z,0.40
2022-09-01T05:08:36.570Z,0.40
2022-09-01T05:11:11.562Z,0.50
2022-09-01T05:13:45.591Z,0.20
2022-09-01T05:16:25.031Z,0.75
2022-09-01T05:18:58.065Z,0.50
2022-09-01T05:21:34.073Z,0.60
2022-09-01T05:24:05.245Z,0.32
2022-09-01T05:26:35.263Z,0.40
2022-09-01T05:29:10.878Z,0.40
2022-09-01T05:31:44.292Z,0.45
2022-09-01T05:34:14.177Z,0.40
2022-09-01T05:36:50.868Z,0.55
2022-09-01T05:39:20.986Z,1.17
2022-09-01T05:41:50.535Z,0.50
2022-09-01T05:44:23.086Z,0.30
2022-09-01T05:46:56.225Z,0.45
2022-09-01T05:49:27.002Z,0.32
2022-09-01T05:51:59.120Z,2.03
2022-09-01T05:54:30.775Z,0.40
2022-09-01T05:57:17.494Z,0.80
2022-09-01T05:59:54.261Z,1.20
2022-09-01T06:02:28.898Z,0.40
2022-09-01T06:05:00.489Z,0.52
2022-09-01T06:07:38.185Z,0.47
2022-09-01T06:10:09.237Z,0.40
2022-09-01T06:12:40.742Z,0.35
2022-09-01T06:15:16.380Z,1.08
2022-09-01T06:17:52.723Z,0.50
2022-09-01T06:20:23.115Z,0.47
2022-09-01T06:22:53.646Z,0.60
2022-09-01T06:25:24.149Z,0.70
2022-09-01T06:27:54.237Z,0.52
2022-09-01T06:30:26.608Z,0.40
2022-09-01T06:33:09.509Z,0.90
2022-09-01T06:35:40.696Z,0.40
2022-09-01T06:38:12.028Z,1.90
2022-09-01T06:40:45.342Z,0.50
2022-09-01T06:43:17.486Z,1.30
2022-09-01T06:45:55.074Z,0.55
2022-09-01T06:48:30.991Z,0.98
2022-09-01T06:51:22.020Z,0.93
2022-09-01T06:53:59.486Z,0.93
2022-09-01T06:56:42.860Z,1.10
2022-09-01T06:59:15.753Z,1.40
2022-09-01T07:01:52.540Z,0.77
2022-09-01T07:04:31.524Z,0.40
2022-09-01T07:13:12.165Z,0.70
2022-09-01T07:18:37.264Z,0.60
2022-09-01T07:21:36.276Z,0.50
2022-09-01T07:24:11.101Z,0.50
2022-09-01T07:26:49.703Z,0.93
2022-09-01T07:29:22.958Z,0.40
2022-09-01T07:34:47.935Z,0.60
2022-09-01T07:43:17.936Z,0.98
2022-09-01T07:49:03.301Z,0.70
2022-09-01T07:51:55.713Z,0.70
2022-09-01T07:54:26.566Z,0.50
2022-09-01T07:56:55.877Z,0.70
2022-09-01T07:59:28.567Z,0.88
2022-09-01T08:02:06.792Z,0.82
2022-09-01T08:04:36.340Z,0.57
2022-09-01T08:07:06.794Z,0.70
2022-09-01T08:09:44.276Z,0.50
2022-09-01T08:12:15.005Z,1.20
2022-09-01T08:17:52.040Z,1.60
2022-09-01T08:20:24.387Z,0.90
2022-09-01T08:23:26.554Z,0.75
2022-09-01T08:25:57.083Z,0.80
2022-09-01T08:28:27.110Z,1.20
2022-09-01T08:31:00.206Z,0.80
2022-09-01T08:33:31.286Z,1.00
2022-09-01T08:36:00.292Z,0.80
2022-09-01T08:38:29.390Z,0.90
2022-09-01T08:41:01.269Z,1.23
2022-09-01T08:43:49.399Z,1.02
2022-09-01T08:46:25.416Z,1.15
2022-09-01T08:49:24.398Z,1.10
2022-09-01T08:52:15.251Z,0.77
2022-09-01T08:54:49.506Z,0.90
2022-09-01T08:57:24.887Z,0.88
2022-09-01T09:00:17.764Z,0.80
2022-09-01T09:03:00.375Z,0.68
2022-09-01T09:05:36.979Z,0.95
2022-09-01T09:08:33.314Z,0.73
2022-09-01T09:11:06.626Z,1.23
2022-09-01T09:13:47.660Z,0.70
2022-09-01T09:16:22.814Z,0.60
2022-09-01T09:18:55.998Z,0.63
2022-09-01T09:21:30.464Z,0.73
2022-09-01T09:24:08.334Z,0.73
2022-09-01T09:26:44.805Z,0.52
2022-09-01T09:29:15.385Z,0.60
2022-09-01T09:31:50.359Z,0.70
2022-09-01T09:34:32.814Z,0.70
2022-09-01T09:37:23.302Z,0.50
2022-09-01T09:40:10.017Z,0.60
2022-09-01T09:42:40.941Z,0.70
2022-09-01T09:45:24.885Z,0.40
2022-09-01T09:47:55.680Z,0.50
2022-09-01T09:50:27.231Z,0.70
2022-09-01T09:53:14.224Z,0.60
2022-09-01T09:56:02.195Z,1.00
2022-09-01T09:58:37.546Z,1.50
2022-09-01T10:01:17.731Z,1.00
2022-09-01T10:03:49.884Z,1.00
2022-09-01T10:06:33.835Z,0.80
2022-09-01T10:09:06.439Z,0.60
2022-09-01T10:11:41.474Z,0.50
2022-09-01T10:14:23.541Z,0.70
2022-09-01T10:17:10.851Z,1.00
2022-09-01T10:19:50.072Z,0.80
2022-09-01T10:22:19.090Z,0.70
2022-09-01T10:24:50.488Z,0.80
2022-09-01T10:27:24.827Z,1.20
2022-09-01T10:30:18.182Z,1.08
2022-09-01T10:32:55.274Z,0.68
2022-09-01T10:35:29.851Z,0.88
2022-09-01T10:38:01.307Z,0.70
2022-09-01T10:40:43.823Z,0.70
2022-09-01T10:43:38.437Z,0.60
2022-09-01T10:46:50.830Z,0.52
2022-09-01T10:50:00.169Z,0.55
2022-09-01T10:53:05.899Z,0.88
2022-09-01T10:55:44.171Z,0.80
2022-09-01T11:02:27.678Z,0.80
2022-09-01T11:05:19.214Z,0.65
2022-09-01T11:08:14.927Z,0.50
2022-09-01T11:10:56.417Z,0.90
2022-09-01T11:13:37.262Z,0.70
2022-09-01T11:19:32.681Z,0.70
2022-09-01T11:22:13.067Z,0.80
2022-09-01T11:25:15.095Z,0.60
2022-09-01T11:28:22.689Z,1.25
2022-09-01T11:30:56.667Z,0.50
2022-09-01T11:33:39.418Z,0.60
2022-09-01T11:36:14.330Z,0.70
2022-09-01T11:41:25.700Z,0.60
2022-09-01T11:43:59.358Z,0.60
2022-09-01T11:46:32.736Z,0.73
2022-09-01T11:49:10.515Z,0.90
2022-09-01T11:51:47.233Z,0.77
2022-09-01T11:54:17.987Z,0.80
2022-09-01T11:56:47.403Z,0.80
2022-09-01T11:59:16.674Z,0.57
2022-09-01T12:01:46.059Z,0.50
2022-09-01T12:04:24.646Z,1.00
2022-09-01T12:06:58.279Z,1.80
2022-09-01T12:09:36.211Z,0.47
2022-09-01T12:12:06.684Z,0.63
2022-09-01T12:15:02.023Z,0.50
2022-09-01T12:17:25.218Z,0.70
2022-09-01T12:19:54.481Z,0.70
2022-09-01T12:22:24.652Z,0.70
2022-09-01T12:24:56.101Z,0.60
2022-09-01T12:27:25.212Z,1.10
2022-09-01T12:29:55.894Z,0.77
2022-09-01T12:32:25.474Z,0.90
2022-09-01T12:35:09.289Z,1.15
2022-09-01T12:37:40.533Z,0.73
2022-09-01T12:40:24.206Z,0.80
2022-09-01T12:42:54.749Z,0.75
2022-09-01T12:45:44.221Z,0.77
2022-09-01T12:48:29.932Z,0.88
2022-09-01T12:51:00.662Z,0.70
2022-09-01T12:53:36.573Z,0.77
2022-09-01T12:56:21.318Z,0.90
2022-09-01T12:59:04.456Z,0.55
2022-09-01T13:01:38.305Z,0.70
2022-09-01T13:04:25.606Z,0.50
2022-09-01T13:06:56.534Z,0.70
2022-09-01T13:09:25.719Z,1.08
2022-09-01T13:12:11.337Z,1.95
2022-09-01T13:14:40.564Z,0.98
2022-09-01T13:17:14.062Z,0.80
2022-09-01T13:19:43.805Z,0.70
2022-09-01T13:22:12.926Z,0.57
2022-09-01T13:24:42.081Z,0.80
2022-09-01T13:27:21.083Z,1.20
2022-09-01T13:29:50.450Z,0.65
2022-09-01T13:32:21.927Z,0.63
2022-09-01T13:34:53.249Z,1.08
2022-09-01T13:37:23.509Z,2.90
2022-09-01T13:39:52.901Z,0.75
2022-09-01T13:42:25.442Z,0.60
2022-09-01T13:44:57.810Z,0.63
2022-09-01T13:47:28.952Z,4.70
2022-09-01T13:50:08.313Z,3.17
2022-09-01T13:52:38.144Z,2.28
2022-09-01T13:55:08.497Z,4.22
2022-09-01T13:57:39.340Z,1.42
2022-09-01T14:00:11.248Z,1.17
2022-09-01T14:02:40.889Z,1.33
2022-09-01T14:05:11.277Z,1.40
2022-09-01T14:07:40.182Z,5.28
2022-09-01T14:10:10.201Z,3.28
2022-09-01T14:12:41.732Z,2.50
2022-09-01T14:15:15.917Z,2.08
2022-09-01T14:17:47.546Z,2.80
2022-09-01T14:20:19.499Z,3.03
2022-09-01T14:22:50.687Z,1.20
2022-09-01T14:25:21.607Z,1.92
2022-09-01T14:27:53.466Z,1.80
2022-09-01T14:30:29.168Z,1.08
2022-09-01T14:33:00.555Z,1.38
2022-09-01T14:35:33.301Z,1.67
2022-09-01T14:38:05.402Z,1.25
2022-09-01T14:40:35.328Z,1.20
2022-09-01T14:43:07.946Z,1.08
2022-09-01T14:45:38.221Z,1.60
2022-09-01T14:48:09.338Z,2.45
2022-09-01T14:50:43.151Z,1.42
2022-09-01T14:53:13.466Z,2.08
2022-09-01T14:55:44.129Z,2.13
2022-09-01T14:58:14.887Z,1.55
2022-09-01T15:00:45.249Z,1.45
2022-09-01T15:03:15.218Z,1.55
2022-09-01T15:05:46.253Z,1.60
2022-09-01T15:08:19.175Z,1.35
2022-09-01T15:10:48.473Z,1.42
2022-09-01T15:13:19.223Z,0.90
2022-09-01T15:15:48.629Z,0.90
2022-09-01T15:18:17.836Z,0.68
2022-09-01T15:20:47.063Z,0.60
2022-09-01T15:23:18.606Z,0.90
2022-09-01T15:25:48.698Z,0.90
2022-09-01T15:28:19.480Z,0.80
2022-09-01T15:30:48.693Z,1.20
2022-09-01T15:33:18.102Z,1.17
2022-09-01T15:35:47.916Z,1.02
2022-09-01T15:38:18.368Z,0.70
2022-09-01T15:40:55.463Z,0.80
2022-09-01T15:43:29.137Z,0.80
2022-09-01T15:45:59.374Z,0.90
2022-09-01T15:48:29.883Z,0.85
2022-09-01T15:51:28.110Z,2.30
2022-09-01T15:54:00.082Z,2.60
2022-09-01T15:56:33.684Z,1.23
2022-09-01T15:59:05.845Z,1.55
2022-09-01T16:01:37.699Z,2.13
2022-09-01T16:04:08.763Z,2.25
2022-09-01T16:06:37.848Z,1.23
2022-09-01T16:09:07.794Z,4.20
2022-09-01T16:11:37.300Z,2.63
2022-09-01T16:14:08.361Z,1.00
2022-09-01T16:16:51.984Z,1.30
2022-09-01T16:19:34.045Z,1.13
2022-09-01T16:22:13.155Z,0.95
2022-09-01T16:24:45.008Z,1.30
2022-09-01T16:27:18.144Z,1.20
2022-09-01T16:29:52.655Z,1.15
2022-09-01T16:32:23.407Z,1.33
2022-09-01T16:34:53.308Z,1.17
2022-09-01T16:37:41.048Z,1.20
2022-09-01T16:40:22.725Z,1.98
2022-09-01T16:42:58.030Z,1.25
2022-09-01T16:45:43.063Z,1.10
2022-09-01T16:48:20.636Z,1.25
2022-09-01T16:50:56.575Z,0.98
2022-09-01T16:53:45.450Z,1.05
2022-09-01T16:56:23.190Z,0.98
2022-09-01T16:59:03.259Z,1.20
2022-09-01T17:01:46.133Z,1.00
2022-09-01T17:04:29.478Z,1.35
2022-09-01T17:07:04.035Z,1.05
2022-09-01T17:09:36.862Z,1.08
2022-09-01T17:12:26.212Z,0.75
2022-09-01T17:14:59.801Z,1.10
2022-09-01T17:17:39.179Z,1.10
2022-09-01T17:20:09.046Z,0.77
2022-09-01T17:22:38.755Z,0.93
2022-09-01T17:25:10.154Z,0.80
2022-09-01T17:27:51.125Z,0.63
2022-09-01T17:30:21.251Z,0.60
2022-09-01T17:33:18.408Z,0.77
2022-09-01T17:36:04.247Z,0.80
2022-09-01T17:38:54.224Z,0.90
2022-09-01T17:41:34.851Z,0.90
2022-09-01T17:44:16.791Z,0.65
2022-09-01T17:46:54.093Z,0.70
2022-09-01T17:49:31.497Z,0.52
2022-09-01T17:52:08.769Z,0.50
2022-09-01T17:54:46.582Z,0.55
2022-09-01T17:57:25.484Z,0.93
2022-09-01T18:00:01.654Z,0.68
2022-09-01T18:03:19.229Z,0.57
2022-09-01T18:05:57.897Z,0.40
2022-09-01T18:08:36.864Z,0.73
2022-09-01T18:11:11.751Z,0.43
2022-09-01T18:13:53.188Z,0.60
2022-09-01T18:16:26.985Z,0.50
2022-09-01T18:19:01.078Z,0.60
2022-09-01T18:21:37.553Z,0.55
2022-09-01T18:24:16.231Z,0.52
2022-09-01T18:26:49.534Z,0.63
2022-09-01T18:29:20.244Z,0.57
2022-09-01T18:32:13.802Z,0.47
2022-09-01T18:34:52.988Z,0.60
2022-09-01T18:37:31.754Z,0.50
2022-09-01T18:40:12.544Z,0.55
2022-09-01T18:42:46.194Z,0.55
2022-09-01T18:45:33.175Z,0.50
2022-09-01T18:48:15.998Z,0.60
2022-09-01T18:50:53.769Z,0.50
2022-09-01T18:53:36.737Z,0.40
2022-09-01T18:56:17.439Z,0.40
2022-09-01T18:59:04.645Z,0.60
2022-09-01T19:01:38.178Z,0.50
2022-09-01T19:04:17.367Z,1.30
2022-09-01T19:07:00.151Z,0.47
2022-09-01T19:09:35.178Z,0.93
2022-09-01T19:12:16.746Z,0.57
2022-09-01T19:14:56.861Z,0.30
2022-09-01T19:17:53.465Z,0.35
2022-09-01T19:20:27.015Z,0.20
2022-09-01T19:23:03.493Z,0.40
2022-09-01T19:25:40.104Z,0.40
2022-09-01T19:28:16.717Z,0.40
2022-09-01T19:30:50.001Z,0.40
2022-09-01T19:33:25.343Z,0.35
2022-09-01T19:36:01.397Z,0.43
2022-09-01T19:38:31.919Z,0.32
2022-09-01T19:41:13.273Z,0.50
2022-09-01T19:43:43.726Z,0.40
2022-09-01T19:46:29.189Z,0.57
2022-09-01T19:49:07.530Z,0.57
2022-09-01T19:51:44.826Z,0.40
2022-09-01T19:54:22.858Z,0.50
2022-09-01T19:56:59.954Z,0.60
2022-09-01T19:59:43.047Z,0.60
2022-09-01T20:02:26.068Z,0.40
2022-09-01T20:05:01.098Z,0.50
2022-09-01T20:07:34.866Z,0.40
2022-09-01T20:10:17.886Z,0.50
2022-09-01T20:12:56.704Z,0.50
2022-09-01T20:15:31.512Z,0.40
2022-09-01T20:18:05.011Z,0.50
2022-09-01T20:20:40.310Z,0.60
2022-09-01T20:25:47.533Z,0.50
2022-09-01T20:28:32.128Z,0.50
2022-09-01T20:31:04.679Z,0.60
2022-09-01T20:33:38.688Z,0.50
2022-09-01T20:36:13.890Z,0.68
2022-09-01T20:41:43.156Z,0.47
2022-09-01T20:44:22.244Z,0.60
2022-09-01T20:46:53.105Z,0.43
2022-09-01T20:49:22.934Z,0.38
2022-09-01T20:51:57.799Z,0.50
2022-09-01T20:54:34.986Z,0.82
2022-09-01T20:57:18.682Z,0.60
2022-09-01T20:59:53.247Z,0.52
2022-09-01T21:02:33.634Z,0.63
2022-09-01T21:05:14.694Z,0.60
2022-09-01T21:07:52.119Z,0.80
2022-09-01T21:10:30.989Z,0.60
2022-09-01T21:13:09.587Z,0.70
2022-09-01T21:15:47.615Z,0.63
2022-09-01T21:18:33.142Z,0.60
2022-09-01T21:21:07.658Z,0.50
2022-09-01T21:23:36.673Z,0.50
2022-09-01T21:26:05.759Z,0.90
2022-09-01T21:28:35.512Z,0.70
2022-09-01T21:31:08.974Z,0.60
2022-09-01T21:33:38.082Z,0.90
2022-09-01T21:36:07.759Z,0.40
2022-09-01T21:38:36.646Z,0.60
2022-09-01T21:41:12.195Z,0.60
2022-09-01T21:43:45.142Z,0.50
2022-09-01T21:46:16.520Z,0.70
2022-09-01T21:48:45.806Z,0.70
2022-09-01T21:51:14.802Z,0.60
2022-09-01T21:53:43.776Z,0.50
2022-09-01T21:56:12.765Z,0.50
2022-09-01T21:58:41.748Z,0.80
2022-09-01T22:01:14.159Z,0.85
2022-09-01T22:03:44.823Z,0.70
2022-09-01T22:06:14.105Z,0.70
2022-09-01T22:08:43.092Z,0.98
2022-09-01T22:11:12.254Z,0.93
2022-09-01T22:13:41.178Z,0.55
2022-09-01T22:16:10.151Z,0.60
2022-09-01T22:18:39.113Z,0.50
2022-09-01T22:21:11.206Z,0.73
2022-09-01T22:23:41.107Z,0.57
2022-09-01T22:26:15.402Z,0.93
2022-09-01T22:28:44.572Z,0.60
2022-09-01T22:31:14.721Z,0.50
2022-09-01T22:33:44.331Z,0.60
2022-09-01T22:36:20.998Z,0.43
2022-09-01T22:38:50.041Z,0.55
2022-09-01T22:41:20.886Z,0.88
2022-09-01T22:43:51.072Z,0.55
2022-09-01T22:46:22.202Z,0.57
2022-09-01T22:48:51.754Z,0.40
2022-09-01T22:51:22.052Z,0.50
2022-09-01T22:53:52.153Z,0.40
2022-09-01T22:56:24.572Z,0.40
2022-09-01T22:58:55.859Z,0.40
2022-09-01T23:01:30.164Z,0.40
2022-09-01T23:04:00.739Z,0.60
2022-09-01T23:06:32.313Z,0.40
2022-09-01T23:09:03.487Z,0.40
2022-09-01T23:11:32.539Z,0.40
2022-09-01T23:14:01.741Z,0.60
2022-09-01T23:16:31.202Z,0.57
2022-09-01T23:19:00.570Z,0.43
2022-09-01T23:21:32.986Z,0.47
2022-09-01T23:24:02.504Z,0.43
2022-09-01T23:26:33.130Z,0.70
2022-09-01T23:29:02.535Z,0.40
2022-09-01T23:31:34.660Z,0.68
2022-09-01T23:34:03.963Z,0.52
2022-09-01T23:36:35.172Z,0.65
2022-09-01T23:39:04.873Z,0.88
2022-09-01T23:41:36.141Z,0.38
2022-09-01T23:44:09.685Z,0.60
2022-09-01T23:46:42.152Z,0.57
2022-09-01T23:49:12.555Z,0.40
2022-09-01T23:51:43.053Z,0.40
2022-09-01T23:54:13.616Z,0.50
2022-09-01T23:56:43.214Z,0.30
2022-09-01T23:59:12.205Z,0.50
